sensor_id;sensor_type;location;lat;lon;timestamp;pressure;altitude;pressure_sealevel;temperature;humidity
72794;BME280;63436;26.334;50.194;2023-03-14T00:01:53;101242.14;;;23.80;46.96
72794;BME280;63436;26.334;50.194;2023-03-14T00:04:18;101244.88;;;23.81;47.38
72794;BME280;63436;26.334;50.194;2023-03-14T00:06:44;101244.07;;;23.64;47.60
72794;BME280;63436;26.334;50.194;2023-03-14T00:09:09;101246.36;;;24.56;46.52
72794;BME280;63436;26.334;50.194;2023-03-14T00:11:35;101249.12;;;24.52;46.16
72794;BME280;63436;26.334;50.194;2023-03-14T00:14:00;101247.81;;;23.91;46.75
72794;BME280;63436;26.334;50.194;2023-03-14T00:16:26;101248.09;;;23.57;47.51
72794;BME280;63436;26.334;50.194;2023-03-14T00:18:52;101242.68;;;23.82;47.02
72794;BME280;63436;26.334;50.194;2023-03-14T00:21:17;101242.39;;;23.85;47.46
72794;BME280;63436;26.334;50.194;2023-03-14T00:23:42;101241.26;;;23.39;47.89
72794;BME280;63436;26.334;50.194;2023-03-14T00:26:09;101242.15;;;23.51;47.79
72794;BME280;63436;26.334;50.194;2023-03-14T00:28:33;101243.64;;;23.05;48.68
72794;BME280;63436;26.334;50.194;2023-03-14T00:30:58;101243.25;;;24.16;46.64
72794;BME280;63436;26.334;50.194;2023-03-14T00:33:23;101242.31;;;23.00;48.66
72794;BME280;63436;26.334;50.194;2023-03-14T00:35:55;101240.81;;;24.62;46.22
72794;BME280;63436;26.334;50.194;2023-03-14T00:38:14;101245.19;;;24.55;46.80
72794;BME280;63436;26.334;50.194;2023-03-14T00:40:40;101242.82;;;23.72;47.65
72794;BME280;63436;26.334;50.194;2023-03-14T00:43:06;101245.09;;;23.93;47.66
72794;BME280;63436;26.334;50.194;2023-03-14T00:45:31;101247.44;;;23.85;47.39
72794;BME280;63436;26.334;50.194;2023-03-14T00:47:57;101247.72;;;23.99;46.66
72794;BME280;63436;26.334;50.194;2023-03-14T00:50:22;101248.77;;;23.07;48.15
72794;BME280;63436;26.334;50.194;2023-03-14T00:52:47;101252.00;;;24.42;46.29
72794;BME280;63436;26.334;50.194;2023-03-14T00:55:12;101255.61;;;24.70;46.17
72794;BME280;63436;26.334;50.194;2023-03-14T00:57:38;101254.98;;;23.69;47.98
72794;BME280;63436;26.334;50.194;2023-03-14T01:00:05;101255.14;;;23.93;46.59
72794;BME280;63436;26.334;50.194;2023-03-14T01:02:29;101259.36;;;23.83;46.78
72794;BME280;63436;26.334;50.194;2023-03-14T01:04:54;101259.09;;;24.04;46.25
72794;BME280;63436;26.334;50.194;2023-03-14T01:07:20;101260.15;;;24.45;46.07
72794;BME280;63436;26.334;50.194;2023-03-14T01:09:45;101260.50;;;24.55;45.84
72794;BME280;63436;26.334;50.194;2023-03-14T01:12:10;101258.90;;;24.11;46.58
72794;BME280;63436;26.334;50.194;2023-03-14T01:14:36;101261.08;;;24.04;46.28
72794;BME280;63436;26.334;50.194;2023-03-14T01:17:01;101264.01;;;24.06;46.34
72794;BME280;63436;26.334;50.194;2023-03-14T01:19:27;101266.55;;;24.37;46.62
72794;BME280;63436;26.334;50.194;2023-03-14T01:21:52;101270.18;;;23.82;46.86
72794;BME280;63436;26.334;50.194;2023-03-14T01:24:18;101268.92;;;23.77;47.07
72794;BME280;63436;26.334;50.194;2023-03-14T01:26:44;101271.49;;;23.89;46.76
72794;BME280;63436;26.334;50.194;2023-03-14T01:29:09;101276.37;;;24.26;46.02
72794;BME280;63436;26.334;50.194;2023-03-14T01:31:34;101277.17;;;24.16;46.77
72794;BME280;63436;26.334;50.194;2023-03-14T01:34:00;101279.40;;;24.09;46.38
72794;BME280;63436;26.334;50.194;2023-03-14T01:36:26;101283.63;;;24.01;46.91
72794;BME280;63436;26.334;50.194;2023-03-14T01:38:51;101285.74;;;23.90;46.79
72794;BME280;63436;26.334;50.194;2023-03-14T01:41:19;101290.74;;;23.65;47.24
72794;BME280;63436;26.334;50.194;2023-03-14T01:43:42;101293.95;;;23.35;47.87
72794;BME280;63436;26.334;50.194;2023-03-14T01:46:19;101295.34;;;23.47;47.77
72794;BME280;63436;26.334;50.194;2023-03-14T01:48:37;101301.89;;;23.86;47.05
72794;BME280;63436;26.334;50.194;2023-03-14T01:51:00;101305.33;;;23.76;47.23
72794;BME280;63436;26.334;50.194;2023-03-14T01:53:24;101311.38;;;23.67;47.36
72794;BME280;63436;26.334;50.194;2023-03-14T01:55:50;101317.39;;;24.22;46.88
72794;BME280;63436;26.334;50.194;2023-03-14T01:58:16;101318.33;;;24.57;46.74
72794;BME280;63436;26.334;50.194;2023-03-14T02:00:41;101321.81;;;24.16;47.05
72794;BME280;63436;26.334;50.194;2023-03-14T02:03:10;101324.99;;;24.11;47.10
72794;BME280;63436;26.334;50.194;2023-03-14T02:05:34;101329.52;;;24.02;47.44
72794;BME280;63436;26.334;50.194;2023-03-14T02:07:59;101331.11;;;24.21;47.05
72794;BME280;63436;26.334;50.194;2023-03-14T02:10:26;101336.05;;;24.11;47.74
72794;BME280;63436;26.334;50.194;2023-03-14T02:12:48;101333.17;;;24.00;47.58
72794;BME280;63436;26.334;50.194;2023-03-14T02:15:14;101332.08;;;24.22;47.23
72794;BME280;63436;26.334;50.194;2023-03-14T02:17:41;101326.62;;;24.07;47.43
72794;BME280;63436;26.334;50.194;2023-03-14T02:20:16;101326.52;;;23.53;48.59
72794;BME280;63436;26.334;50.194;2023-03-14T02:22:31;101331.44;;;24.20;46.92
72794;BME280;63436;26.334;50.194;2023-03-14T02:25:02;101331.41;;;23.68;47.83
72794;BME280;63436;26.334;50.194;2023-03-14T02:27:22;101333.79;;;24.15;48.03
72794;BME280;63436;26.334;50.194;2023-03-14T02:29:51;101333.62;;;23.90;48.51
72794;BME280;63436;26.334;50.194;2023-03-14T02:32:13;101336.90;;;23.38;49.71
72794;BME280;63436;26.334;50.194;2023-03-14T02:34:38;101335.75;;;23.12;50.29
72794;BME280;63436;26.334;50.194;2023-03-14T02:37:04;101333.08;;;23.77;49.47
72794;BME280;63436;26.334;50.194;2023-03-14T02:39:35;101335.09;;;23.46;49.02
72794;BME280;63436;26.334;50.194;2023-03-14T02:41:54;101338.95;;;24.26;48.12
72794;BME280;63436;26.334;50.194;2023-03-14T02:44:20;101340.27;;;23.40;49.73
72794;BME280;63436;26.334;50.194;2023-03-14T02:46:45;101339.70;;;24.57;48.08
72794;BME280;63436;26.334;50.194;2023-03-14T02:49:12;101342.37;;;24.60;48.11
72794;BME280;63436;26.334;50.194;2023-03-14T02:51:35;101344.35;;;23.99;49.28
72794;BME280;63436;26.334;50.194;2023-03-14T02:54:00;101346.74;;;23.90;49.58
72794;BME280;63436;26.334;50.194;2023-03-14T02:56:26;101349.39;;;23.26;51.13
72794;BME280;63436;26.334;50.194;2023-03-14T02:58:52;101351.29;;;24.15;49.54
72794;BME280;63436;26.334;50.194;2023-03-14T03:01:18;101353.04;;;23.95;50.12
72794;BME280;63436;26.334;50.194;2023-03-14T03:03:43;101355.18;;;23.45;50.34
72794;BME280;63436;26.334;50.194;2023-03-14T03:06:08;101360.07;;;24.20;49.91
72794;BME280;63436;26.334;50.194;2023-03-14T03:08:34;101359.73;;;23.88;49.40
72794;BME280;63436;26.334;50.194;2023-03-14T03:10:59;101365.59;;;23.94;49.36
72794;BME280;63436;26.334;50.194;2023-03-14T03:13:25;101372.49;;;23.67;49.76
72794;BME280;63436;26.334;50.194;2023-03-14T03:15:50;101380.82;;;24.03;49.19
72794;BME280;63436;26.334;50.194;2023-03-14T03:18:16;101382.62;;;24.11;49.23
72794;BME280;63436;26.334;50.194;2023-03-14T03:20:41;101389.24;;;23.19;50.80
72794;BME280;63436;26.334;50.194;2023-03-14T03:23:07;101384.49;;;24.13;50.19
72794;BME280;63436;26.334;50.194;2023-03-14T03:25:32;101390.35;;;23.78;50.26
72794;BME280;63436;26.334;50.194;2023-03-14T03:27:57;101393.71;;;24.40;49.14
72794;BME280;63436;26.334;50.194;2023-03-14T03:30:23;101393.63;;;23.78;50.05
72794;BME280;63436;26.334;50.194;2023-03-14T03:32:49;101396.95;;;23.35;50.56
72794;BME280;63436;26.334;50.194;2023-03-14T03:35:15;101394.01;;;24.44;49.21
72794;BME280;63436;26.334;50.194;2023-03-14T03:37:40;101398.19;;;24.24;49.60
72794;BME280;63436;26.334;50.194;2023-03-14T03:40:08;101400.61;;;24.31;49.12
72794;BME280;63436;26.334;50.194;2023-03-14T03:42:31;101410.67;;;23.09;51.37
72794;BME280;63436;26.334;50.194;2023-03-14T03:44:57;101414.06;;;23.44;50.84
72794;BME280;63436;26.334;50.194;2023-03-14T03:47:23;101416.45;;;24.20;49.52
72794;BME280;63436;26.334;50.194;2023-03-14T03:49:49;101418.21;;;24.12;49.55
72794;BME280;63436;26.334;50.194;2023-03-14T03:52:15;101429.38;;;22.82;52.53
72794;BME280;63436;26.334;50.194;2023-03-14T03:54:40;101426.62;;;25.42;47.47
72794;BME280;63436;26.334;50.194;2023-03-14T03:57:05;101426.78;;;24.62;49.01
72794;BME280;63436;26.334;50.194;2023-03-14T03:59:31;101430.05;;;23.81;50.66
72794;BME280;63436;26.334;50.194;2023-03-14T04:01:57;101437.18;;;22.35;53.53
72794;BME280;63436;26.334;50.194;2023-03-14T04:04:22;101438.55;;;23.89;51.40
72794;BME280;63436;26.334;50.194;2023-03-14T04:06:48;101435.78;;;24.95;49.05
72794;BME280;63436;26.334;50.194;2023-03-14T04:09:15;101439.74;;;24.65;50.23
72794;BME280;63436;26.334;50.194;2023-03-14T04:11:39;101450.48;;;22.89;53.48
72794;BME280;63436;26.334;50.194;2023-03-14T04:14:05;101450.69;;;25.15;49.25
72794;BME280;63436;26.334;50.194;2023-03-14T04:16:31;101459.15;;;24.30;51.13
72794;BME280;63436;26.334;50.194;2023-03-14T04:18:56;101459.55;;;23.00;53.32
72794;BME280;63436;26.334;50.194;2023-03-14T04:21:21;101461.84;;;23.65;51.79
72794;BME280;63436;26.334;50.194;2023-03-14T04:23:46;101468.55;;;23.28;52.77
72794;BME280;63436;26.334;50.194;2023-03-14T04:26:11;101469.76;;;24.58;50.40
72794;BME280;63436;26.334;50.194;2023-03-14T04:28:37;101470.10;;;25.71;47.86
72794;BME280;63436;26.334;50.194;2023-03-14T04:31:07;101471.64;;;25.54;47.35
72794;BME280;63436;26.334;50.194;2023-03-14T04:33:28;101475.36;;;26.18;45.98
72794;BME280;63436;26.334;50.194;2023-03-14T04:35:54;101477.86;;;26.17;45.77
72794;BME280;63436;26.334;50.194;2023-03-14T04:38:18;101478.18;;;24.77;48.05
72794;BME280;63436;26.334;50.194;2023-03-14T04:40:44;101480.68;;;25.38;47.22
72794;BME280;63436;26.334;50.194;2023-03-14T04:43:11;101484.04;;;25.80;46.04
72794;BME280;63436;26.334;50.194;2023-03-14T04:45:35;101485.77;;;24.87;47.51
72794;BME280;63436;26.334;50.194;2023-03-14T04:48:01;101486.61;;;24.82;47.22
72794;BME280;63436;26.334;50.194;2023-03-14T04:50:26;101488.30;;;26.11;44.66
72794;BME280;63436;26.334;50.194;2023-03-14T04:52:52;101487.78;;;26.52;43.74
72794;BME280;63436;26.334;50.194;2023-03-14T04:55:17;101488.74;;;27.20;43.14
72794;BME280;63436;26.334;50.194;2023-03-14T04:57:43;101489.86;;;24.98;46.76
72794;BME280;63436;26.334;50.194;2023-03-14T05:00:09;101487.34;;;27.25;43.22
72794;BME280;63436;26.334;50.194;2023-03-14T05:02:33;101486.25;;;26.96;43.30
72794;BME280;63436;26.334;50.194;2023-03-14T05:04:58;101489.18;;;24.40;48.36
72794;BME280;63436;26.334;50.194;2023-03-14T05:07:24;101488.90;;;24.63;46.88
72794;BME280;63436;26.334;50.194;2023-03-14T05:09:49;101489.99;;;24.84;46.34
72794;BME280;63436;26.334;50.194;2023-03-14T05:12:14;101488.53;;;25.44;44.19
72794;BME280;63436;26.334;50.194;2023-03-14T05:14:45;101485.51;;;24.48;45.36
72794;BME280;63436;26.334;50.194;2023-03-14T05:17:05;101485.40;;;25.33;44.38
72794;BME280;63436;26.334;50.194;2023-03-14T05:19:30;101488.61;;;25.85;44.02
72794;BME280;63436;26.334;50.194;2023-03-14T05:21:55;101488.94;;;26.54;43.61
72794;BME280;63436;26.334;50.194;2023-03-14T05:24:21;101484.65;;;27.08;42.07
72794;BME280;63436;26.334;50.194;2023-03-14T05:26:46;101486.60;;;26.68;43.34
72794;BME280;63436;26.334;50.194;2023-03-14T05:29:12;101489.22;;;26.06;44.90
72794;BME280;63436;26.334;50.194;2023-03-14T05:31:37;101484.55;;;26.88;43.60
72794;BME280;63436;26.334;50.194;2023-03-14T05:34:04;101486.96;;;26.87;43.31
72794;BME280;63436;26.334;50.194;2023-03-14T05:36:28;101488.51;;;26.91;43.14
72794;BME280;63436;26.334;50.194;2023-03-14T05:38:53;101493.57;;;27.09;43.00
72794;BME280;63436;26.334;50.194;2023-03-14T05:41:19;101495.69;;;25.96;45.23
72794;BME280;63436;26.334;50.194;2023-03-14T05:43:44;101497.19;;;26.11;44.45
72794;BME280;63436;26.334;50.194;2023-03-14T05:46:09;101496.90;;;26.69;42.94
72794;BME280;63436;26.334;50.194;2023-03-14T05:48:34;101496.24;;;27.23;42.14
72794;BME280;63436;26.334;50.194;2023-03-14T05:51:00;101498.99;;;26.12;44.02
72794;BME280;63436;26.334;50.194;2023-03-14T05:53:26;101497.52;;;27.32;41.46
72794;BME280;63436;26.334;50.194;2023-03-14T05:55:52;101497.49;;;26.07;43.52
72794;BME280;63436;26.334;50.194;2023-03-14T05:58:17;101498.79;;;25.80;43.62
72794;BME280;63436;26.334;50.194;2023-03-14T06:00:42;101492.48;;;27.06;41.27
72794;BME280;63436;26.334;50.194;2023-03-14T06:03:08;101498.75;;;25.04;44.38
72794;BME280;63436;26.334;50.194;2023-03-14T06:05:33;101497.50;;;26.02;43.21
72794;BME280;63436;26.334;50.194;2023-03-14T06:07:58;101499.61;;;25.16;45.14
72794;BME280;63436;26.334;50.194;2023-03-14T06:10:24;101496.20;;;24.66;45.08
72794;BME280;63436;26.334;50.194;2023-03-14T06:12:49;101490.50;;;27.63;41.27
72794;BME280;63436;26.334;50.194;2023-03-14T06:15:14;101492.51;;;26.06;43.54
72794;BME280;63436;26.334;50.194;2023-03-14T06:17:40;101485.82;;;26.97;41.58
72794;BME280;63436;26.334;50.194;2023-03-14T06:20:07;101487.19;;;26.21;42.77
72794;BME280;63436;26.334;50.194;2023-03-14T06:22:31;101485.47;;;26.67;42.69
72794;BME280;63436;26.334;50.194;2023-03-14T06:24:56;101479.88;;;27.13;41.39
72794;BME280;63436;26.334;50.194;2023-03-14T06:27:22;101482.24;;;26.61;42.44
72794;BME280;63436;26.334;50.194;2023-03-14T06:29:47;101479.66;;;25.89;43.34
72794;BME280;63436;26.334;50.194;2023-03-14T06:32:13;101475.46;;;27.98;39.23
72794;BME280;63436;26.334;50.194;2023-03-14T06:34:39;101474.74;;;27.14;40.71
72794;BME280;63436;26.334;50.194;2023-03-14T06:37:03;101477.44;;;27.54;40.75
72794;BME280;63436;26.334;50.194;2023-03-14T06:39:29;101477.54;;;27.03;41.30
72794;BME280;63436;26.334;50.194;2023-03-14T06:41:54;101476.03;;;27.87;39.08
72794;BME280;63436;26.334;50.194;2023-03-14T06:44:20;101479.62;;;25.34;43.56
72794;BME280;63436;26.334;50.194;2023-03-14T06:46:46;101476.50;;;26.70;40.58
72794;BME280;63436;26.334;50.194;2023-03-14T06:49:11;101472.44;;;27.09;40.05
72794;BME280;63436;26.334;50.194;2023-03-14T06:51:37;101474.23;;;27.20;40.23
72794;BME280;63436;26.334;50.194;2023-03-14T06:54:02;101477.63;;;27.63;38.87
72794;BME280;63436;26.334;50.194;2023-03-14T06:56:28;101478.87;;;27.20;40.00
72794;BME280;63436;26.334;50.194;2023-03-14T06:58:54;101477.46;;;27.56;37.48
72794;BME280;63436;26.334;50.194;2023-03-14T07:01:22;101480.53;;;27.62;37.78
72794;BME280;63436;26.334;50.194;2023-03-14T07:03:44;101480.05;;;26.49;39.48
72794;BME280;63436;26.334;50.194;2023-03-14T07:06:10;101482.45;;;25.89;40.53
72794;BME280;63436;26.334;50.194;2023-03-14T07:08:35;101481.48;;;24.57;43.02
72794;BME280;63436;26.334;50.194;2023-03-14T07:11:01;101475.18;;;26.32;41.13
72794;BME280;63436;26.334;50.194;2023-03-14T07:13:26;101472.66;;;26.26;40.83
72794;BME280;63436;26.334;50.194;2023-03-14T07:15:52;101467.92;;;26.98;39.39
72794;BME280;63436;26.334;50.194;2023-03-14T07:18:17;101467.60;;;26.40;40.24
72794;BME280;63436;26.334;50.194;2023-03-14T07:20:45;101464.24;;;25.64;41.38
72794;BME280;63436;26.334;50.194;2023-03-14T07:23:08;101461.30;;;24.57;43.20
72794;BME280;63436;26.334;50.194;2023-03-14T07:25:34;101464.92;;;25.85;41.45
72794;BME280;63436;26.334;50.194;2023-03-14T07:27:59;101462.11;;;27.21;38.82
72794;BME280;63436;26.334;50.194;2023-03-14T07:30:25;101455.41;;;26.73;38.99
72794;BME280;63436;26.334;50.194;2023-03-14T07:32:50;101454.39;;;25.77;41.21
72794;BME280;63436;26.334;50.194;2023-03-14T07:35:16;101452.98;;;26.77;39.28
72794;BME280;63436;26.334;50.194;2023-03-14T07:37:41;101451.78;;;26.80;38.98
72794;BME280;63436;26.334;50.194;2023-03-14T07:40:08;101451.33;;;26.05;39.70
72794;BME280;63436;26.334;50.194;2023-03-14T07:42:33;101451.24;;;24.77;42.44
72794;BME280;63436;26.334;50.194;2023-03-14T07:44:58;101449.57;;;25.14;43.30
72794;BME280;63436;26.334;50.194;2023-03-14T07:47:23;101449.67;;;25.60;42.58
72794;BME280;63436;26.334;50.194;2023-03-14T07:49:49;101446.91;;;28.39;37.94
72794;BME280;63436;26.334;50.194;2023-03-14T07:52:14;101440.60;;;26.20;37.42
72794;BME280;63436;26.334;50.194;2023-03-14T07:54:40;101437.49;;;27.45;37.10
72794;BME280;63436;26.334;50.194;2023-03-14T07:57:05;101430.89;;;27.09;38.14
72794;BME280;63436;26.334;50.194;2023-03-14T07:59:31;101431.22;;;28.24;36.52
72794;BME280;63436;26.334;50.194;2023-03-14T08:02:01;101424.07;;;26.71;37.37
72794;BME280;63436;26.334;50.194;2023-03-14T08:04:22;101423.47;;;27.46;35.31
72794;BME280;63436;26.334;50.194;2023-03-14T08:06:47;101417.45;;;27.78;36.15
72794;BME280;63436;26.334;50.194;2023-03-14T08:09:12;101412.88;;;25.98;38.50
72794;BME280;63436;26.334;50.194;2023-03-14T08:11:38;101410.49;;;26.11;38.08
72794;BME280;63436;26.334;50.194;2023-03-14T08:14:04;101412.27;;;25.93;38.76
72794;BME280;63436;26.334;50.194;2023-03-14T08:16:29;101409.36;;;26.75;37.32
72794;BME280;63436;26.334;50.194;2023-03-14T08:18:55;101407.53;;;26.66;37.77
72794;BME280;63436;26.334;50.194;2023-03-14T08:21:25;101404.35;;;26.58;38.49
72794;BME280;63436;26.334;50.194;2023-03-14T08:23:52;101405.58;;;27.11;37.49
72794;BME280;63436;26.334;50.194;2023-03-14T08:26:11;101403.95;;;27.23;36.96
72794;BME280;63436;26.334;50.194;2023-03-14T08:28:37;101394.95;;;26.47;38.01
72794;BME280;63436;26.334;50.194;2023-03-14T08:31:03;101390.50;;;26.70;38.17
72794;BME280;63436;26.334;50.194;2023-03-14T08:33:29;101387.55;;;27.16;37.33
72794;BME280;63436;26.334;50.194;2023-03-14T08:35:54;101381.49;;;25.99;38.75
72794;BME280;63436;26.334;50.194;2023-03-14T08:38:20;101374.70;;;26.24;38.17
72794;BME280;63436;26.334;50.194;2023-03-14T08:40:50;101374.10;;;27.24;37.13
72794;BME280;63436;26.334;50.194;2023-03-14T08:43:09;101370.37;;;25.68;38.74
72794;BME280;63436;26.334;50.194;2023-03-14T08:45:36;101364.13;;;26.46;37.74
72794;BME280;63436;26.334;50.194;2023-03-14T08:48:01;101361.82;;;27.08;36.82
72794;BME280;63436;26.334;50.194;2023-03-14T08:50:41;101357.74;;;27.73;35.93
72794;BME280;63436;26.334;50.194;2023-03-14T08:52:53;101348.87;;;28.46;35.24
72794;BME280;63436;26.334;50.194;2023-03-14T08:55:18;101353.94;;;26.88;37.19
72794;BME280;63436;26.334;50.194;2023-03-14T08:57:43;101341.94;;;27.97;35.70
72794;BME280;63436;26.334;50.194;2023-03-14T09:00:15;101340.36;;;27.68;36.15
72794;BME280;63436;26.334;50.194;2023-03-14T09:02:34;101329.49;;;28.33;35.13
72794;BME280;63436;26.334;50.194;2023-03-14T09:05:00;101331.37;;;27.03;37.62
72794;BME280;63436;26.334;50.194;2023-03-14T09:07:26;101323.43;;;28.19;35.09
72794;BME280;63436;26.334;50.194;2023-03-14T09:09:51;101320.93;;;27.16;36.35
72794;BME280;63436;26.334;50.194;2023-03-14T09:12:16;101318.22;;;26.39;37.84
72794;BME280;63436;26.334;50.194;2023-03-14T09:14:44;101306.33;;;28.66;35.38
72794;BME280;63436;26.334;50.194;2023-03-14T09:17:08;101300.72;;;29.39;34.06
72794;BME280;63436;26.334;50.194;2023-03-14T09:19:33;101294.93;;;27.64;36.78
72794;BME280;63436;26.334;50.194;2023-03-14T09:21:59;101291.39;;;27.21;37.23
72794;BME280;63436;26.334;50.194;2023-03-14T09:24:24;101292.39;;;27.76;35.77
72794;BME280;63436;26.334;50.194;2023-03-14T09:26:50;101289.62;;;28.34;35.13
72794;BME280;63436;26.334;50.194;2023-03-14T09:29:15;101286.15;;;27.96;36.51
72794;BME280;63436;26.334;50.194;2023-03-14T09:31:41;101285.81;;;27.06;37.29
72794;BME280;63436;26.334;50.194;2023-03-14T09:34:07;101278.49;;;27.78;36.22
72794;BME280;63436;26.334;50.194;2023-03-14T09:36:32;101275.26;;;28.83;34.90
72794;BME280;63436;26.334;50.194;2023-03-14T09:38:58;101273.67;;;27.42;36.62
72794;BME280;63436;26.334;50.194;2023-03-14T09:41:25;101274.47;;;26.93;37.66
72794;BME280;63436;26.334;50.194;2023-03-14T09:43:59;101268.92;;;27.54;37.07
72794;BME280;63436;26.334;50.194;2023-03-14T09:46:14;101264.38;;;28.19;35.71
72794;BME280;63436;26.334;50.194;2023-03-14T09:48:40;101259.73;;;28.31;36.14
72794;BME280;63436;26.334;50.194;2023-03-14T09:51:10;101251.06;;;27.25;37.56
72794;BME280;63436;26.334;50.194;2023-03-14T09:53:36;101248.72;;;28.09;36.82
72794;BME280;63436;26.334;50.194;2023-03-14T09:55:58;101243.06;;;27.77;37.17
72794;BME280;63436;26.334;50.194;2023-03-14T09:58:23;101236.36;;;28.10;36.64
72794;BME280;63436;26.334;50.194;2023-03-14T10:00:47;101237.23;;;26.47;38.58
72794;BME280;63436;26.334;50.194;2023-03-14T10:03:22;101225.40;;;28.05;37.04
72794;BME280;63436;26.334;50.194;2023-03-14T10:05:37;101222.45;;;27.67;37.39
72794;BME280;63436;26.334;50.194;2023-03-14T10:08:03;101215.08;;;27.48;37.61
72794;BME280;63436;26.334;50.194;2023-03-14T10:10:31;101212.32;;;28.71;35.43
72794;BME280;63436;26.334;50.194;2023-03-14T10:13:10;101215.21;;;26.26;39.22
72794;BME280;63436;26.334;50.194;2023-03-14T10:15:25;101204.10;;;26.49;38.30
72794;BME280;63436;26.334;50.194;2023-03-14T10:17:48;101208.48;;;26.45;38.92
72794;BME280;63436;26.334;50.194;2023-03-14T10:22:36;101202.79;;;27.79;36.88
72794;BME280;63436;26.334;50.194;2023-03-14T10:25:03;101202.73;;;26.09;39.51
72794;BME280;63436;26.334;50.194;2023-03-14T10:27:30;101204.81;;;25.88;40.43
72794;BME280;63436;26.334;50.194;2023-03-14T10:29:54;101203.60;;;26.38;40.07
72794;BME280;63436;26.334;50.194;2023-03-14T10:32:20;101202.60;;;25.70;40.79
72794;BME280;63436;26.334;50.194;2023-03-14T10:34:42;101200.88;;;25.65;41.13
72794;BME280;63436;26.334;50.194;2023-03-14T10:37:17;101202.01;;;25.73;41.03
72794;BME280;63436;26.334;50.194;2023-03-14T10:39:41;101201.26;;;25.66;41.27
72794;BME280;63436;26.334;50.194;2023-03-14T10:42:04;101202.67;;;27.21;38.45
72794;BME280;63436;26.334;50.194;2023-03-14T10:44:25;101194.52;;;27.22;37.70
72794;BME280;63436;26.334;50.194;2023-03-14T10:46:59;101197.43;;;25.95;39.83
72794;BME280;63436;26.334;50.194;2023-03-14T10:49:23;101191.43;;;27.09;38.65
72794;BME280;63436;26.334;50.194;2023-03-14T10:51:39;101189.64;;;26.25;39.58
72794;BME280;63436;26.334;50.194;2023-03-14T10:54:12;101183.17;;;26.80;38.85
72794;BME280;63436;26.334;50.194;2023-03-14T10:56:36;101183.05;;;26.45;39.00
72794;BME280;63436;26.334;50.194;2023-03-14T10:58:57;101174.45;;;28.20;36.49
72794;BME280;63436;26.334;50.194;2023-03-14T11:01:31;101168.39;;;27.04;37.35
72794;BME280;63436;26.334;50.194;2023-03-14T11:03:53;101165.89;;;28.20;35.85
72794;BME280;63436;26.334;50.194;2023-03-14T11:06:17;101172.61;;;25.44;39.24
72794;BME280;63436;26.334;50.194;2023-03-14T11:08:42;101171.58;;;26.94;38.53
72794;BME280;63436;26.334;50.194;2023-03-14T11:11:15;101171.35;;;26.32;38.84
72794;BME280;63436;26.334;50.194;2023-03-14T11:13:32;101170.22;;;25.33;40.62
72794;BME280;63436;26.334;50.194;2023-03-14T11:16:02;101164.00;;;28.26;36.45
72794;BME280;63436;26.334;50.194;2023-03-14T11:18:34;101172.00;;;25.82;39.65
72794;BME280;63436;26.334;50.194;2023-03-14T11:20:49;101172.59;;;25.83;39.32
72794;BME280;63436;26.334;50.194;2023-03-14T11:23:14;101173.94;;;25.17;40.62
72794;BME280;63436;26.334;50.194;2023-03-14T11:25:44;101172.97;;;25.77;39.97
72794;BME280;63436;26.334;50.194;2023-03-14T11:28:09;101162.05;;;27.43;37.72
72794;BME280;63436;26.334;50.194;2023-03-14T11:30:34;101167.18;;;26.17;38.47
72794;BME280;63436;26.334;50.194;2023-03-14T11:32:58;101164.20;;;26.71;38.56
72794;BME280;63436;26.334;50.194;2023-03-14T11:35:22;101154.33;;;27.12;37.52
72794;BME280;63436;26.334;50.194;2023-03-14T11:37:46;101147.55;;;27.92;35.81
72794;BME280;63436;26.334;50.194;2023-03-14T11:40:14;101147.80;;;28.24;35.74
72794;BME280;63436;26.334;50.194;2023-03-14T11:42:40;101155.91;;;25.73;38.34
72794;BME280;63436;26.334;50.194;2023-03-14T11:45:01;101150.69;;;27.35;36.41
72794;BME280;63436;26.334;50.194;2023-03-14T11:47:29;101150.37;;;28.36;35.35
72794;BME280;63436;26.334;50.194;2023-03-14T11:49:53;101144.81;;;26.67;37.51
72794;BME280;63436;26.334;50.194;2023-03-14T11:52:20;101149.04;;;26.53;38.40
72794;BME280;63436;26.334;50.194;2023-03-14T11:54:44;101139.48;;;26.95;37.48
72794;BME280;63436;26.334;50.194;2023-03-14T11:57:12;101136.39;;;28.90;34.45
72794;BME280;63436;26.334;50.194;2023-03-14T11:59:40;101137.31;;;27.14;36.59
72794;BME280;63436;26.334;50.194;2023-03-14T12:02:00;101139.80;;;27.62;36.22
72794;BME280;63436;26.334;50.194;2023-03-14T12:04:33;101138.98;;;28.06;35.71
72794;BME280;63436;26.334;50.194;2023-03-14T12:06:49;101142.78;;;27.62;35.43
72794;BME280;63436;26.334;50.194;2023-03-14T12:09:14;101138.45;;;28.56;34.49
72794;BME280;63436;26.334;50.194;2023-03-14T12:11:41;101138.83;;;26.71;36.86
72794;BME280;63436;26.334;50.194;2023-03-14T12:14:17;101137.60;;;27.96;35.76
72794;BME280;63436;26.334;50.194;2023-03-14T12:16:35;101136.35;;;27.81;35.29
72794;BME280;63436;26.334;50.194;2023-03-14T12:18:56;101136.04;;;26.07;38.03
72794;BME280;63436;26.334;50.194;2023-03-14T12:23:51;101127.84;;;27.10;36.74
72794;BME280;63436;26.334;50.194;2023-03-14T12:26:16;101129.42;;;27.58;36.10
72794;BME280;63436;26.334;50.194;2023-03-14T12:28:38;101125.73;;;28.12;34.85
72794;BME280;63436;26.334;50.194;2023-03-14T12:33:30;101123.54;;;29.03;33.64
72794;BME280;63436;26.334;50.194;2023-03-14T12:36:00;101127.89;;;29.06;33.63
72794;BME280;63436;26.334;50.194;2023-03-14T12:38:25;101130.47;;;27.72;35.15